sensor_id;sensor_type;location;lat;lon;timestamp;pressure;altitude;pressure_sealevel;temperature;humidity
9009;BME280;62813;51.424;6.762;2023-02-13T00:00:22;103474.00;;;9.17;77.82
9009;BME280;62813;51.424;6.762;2023-02-13T00:02:49;103475.69;;;9.15;78.04
9009;BME280;62813;51.424;6.762;2023-02-13T00:05:16;103470.50;;;9.10;78.31
9009;BME280;62813;51.424;6.762;2023-02-13T00:07:43;103478.28;;;9.12;78.19
9009;BME280;62813;51.424;6.762;2023-02-13T00:10:10;103466.19;;;9.14;78.21
9009;BME280;62813;51.424;6.762;2023-02-13T00:12:37;103463.59;;;9.12;78.47
9009;BME280;62813;51.424;6.762;2023-02-13T00:15:04;103467.91;;;9.12;78.33
9009;BME280;62813;51.424;6.762;2023-02-13T00:17:31;103464.44;;;9.10;78.19
9009;BME280;62813;51.424;6.762;2023-02-13T00:19:58;103465.31;;;9.12;78.28
9009;BME280;62813;51.424;6.762;2023-02-13T00:22:25;103461.00;;;9.11;78.40
9009;BME280;62813;51.424;6.762;2023-02-13T00:24:52;103463.59;;;9.12;78.38
9009;BME280;62813;51.424;6.762;2023-02-13T00:27:18;103450.63;;;9.11;78.52
9009;BME280;62813;51.424;6.762;2023-02-13T00:29:46;103447.19;;;9.12;78.65
9009;BME280;62813;51.424;6.762;2023-02-13T00:32:13;103453.22;;;9.12;78.53
9009;BME280;62813;51.424;6.762;2023-02-13T00:34:40;103449.78;;;9.12;78.51
9009;BME280;62813;51.424;6.762;2023-02-13T00:37:07;103453.22;;;9.11;78.48
9009;BME280;62813;51.424;6.762;2023-02-13T00:39:34;103450.63;;;9.11;78.67
9009;BME280;62813;51.424;6.762;2023-02-13T00:42:01;103443.72;;;9.11;78.93
9009;BME280;62813;51.424;6.762;2023-02-13T00:44:27;103435.09;;;9.11;78.63
9009;BME280;62813;51.424;6.762;2023-02-13T00:46:54;103448.06;;;9.12;78.62
9009;BME280;62813;51.424;6.762;2023-02-13T00:49:21;103438.56;;;9.13;78.73
9009;BME280;62813;51.424;6.762;2023-02-13T00:51:47;103448.91;;;9.13;78.57
9009;BME280;62813;51.424;6.762;2023-02-13T00:54:15;103448.06;;;9.12;78.84
9009;BME280;62813;51.424;6.762;2023-02-13T00:56:41;103447.19;;;9.12;78.89
9009;BME280;62813;51.424;6.762;2023-02-13T00:59:08;103445.47;;;9.11;78.59
9009;BME280;62813;51.424;6.762;2023-02-13T01:01:35;103449.78;;;9.10;78.39
9009;BME280;62813;51.424;6.762;2023-02-13T01:04:01;103450.63;;;9.09;78.66
9009;BME280;62813;51.424;6.762;2023-02-13T01:06:28;103452.38;;;9.10;79.00
9009;BME280;62813;51.424;6.762;2023-02-13T01:08:55;103454.03;;;9.07;78.59
9009;BME280;62813;51.424;6.762;2023-02-13T01:11:21;103447.13;;;9.06;78.67
9009;BME280;62813;51.424;6.762;2023-02-13T01:13:48;103454.91;;;9.06;78.85
9009;BME280;62813;51.424;6.762;2023-02-13T01:16:15;103445.34;;;9.02;78.94
9009;BME280;62813;51.424;6.762;2023-02-13T01:18:43;103447.91;;;9.00;78.64
9009;BME280;62813;51.424;6.762;2023-02-13T01:21:16;103452.22;;;9.01;78.74
9009;BME280;62813;51.424;6.762;2023-02-13T01:23:43;103445.31;;;8.99;78.84
9009;BME280;62813;51.424;6.762;2023-02-13T01:26:17;103447.88;;;8.95;78.58
9009;BME280;62813;51.424;6.762;2023-02-13T01:28:44;103446.16;;;8.97;78.66
9009;BME280;62813;51.424;6.762;2023-02-13T01:31:11;103447.91;;;8.99;78.66
9009;BME280;62813;51.424;6.762;2023-02-13T01:33:38;103445.31;;;8.99;78.63
9009;BME280;62813;51.424;6.762;2023-02-13T01:36:07;103447.91;;;9.00;78.87
9009;BME280;62813;51.424;6.762;2023-02-13T01:38:34;103438.41;;;9.01;78.40
9009;BME280;62813;51.424;6.762;2023-02-13T01:41:01;103441.00;;;9.01;78.31
9009;BME280;62813;51.424;6.762;2023-02-13T01:43:55;103436.69;;;8.98;78.07
9009;BME280;62813;51.424;6.762;2023-02-13T01:46:39;103440.00;;;8.86;78.48
9009;BME280;62813;51.424;6.762;2023-02-13T01:49:12;103435.69;;;8.82;78.71
9009;BME280;62813;51.424;6.762;2023-02-13T01:51:41;103430.50;;;8.81;78.45
9009;BME280;62813;51.424;6.762;2023-02-13T01:54:14;103436.56;;;8.84;78.51
9009;BME280;62813;51.424;6.762;2023-02-13T01:56:43;103438.34;;;8.91;78.16
9009;BME280;62813;51.424;6.762;2023-02-13T01:59:17;103437.44;;;8.86;78.12
9009;BME280;62813;51.424;6.762;2023-02-13T02:01:45;103431.44;;;8.90;78.33
9009;BME280;62813;51.424;6.762;2023-02-13T02:06:43;103426.19;;;8.81;78.49
9009;BME280;62813;51.424;6.762;2023-02-13T02:09:14;103422.72;;;8.81;78.24
9009;BME280;62813;51.424;6.762;2023-02-13T02:14:39;103429.59;;;8.79;78.28
9009;BME280;62813;51.424;6.762;2023-02-13T02:17:06;103427.03;;;8.82;78.42
9009;BME280;62813;51.424;6.762;2023-02-13T02:33:10;103427.00;;;8.80;78.48
9009;BME280;62813;51.424;6.762;2023-02-13T02:41:55;103421.00;;;8.81;78.25
9009;BME280;62813;51.424;6.762;2023-02-13T02:44:37;103433.09;;;8.82;78.04
9009;BME280;62813;51.424;6.762;2023-02-13T02:53:07;103430.31;;;8.64;78.24
9009;BME280;62813;51.424;6.762;2023-02-13T02:58:30;103429.44;;;8.65;78.35
9009;BME280;62813;51.424;6.762;2023-02-13T03:01:20;103432.91;;;8.64;78.52
9009;BME280;62813;51.424;6.762;2023-02-13T03:04:15;103434.69;;;8.68;78.31
9009;BME280;62813;51.424;6.762;2023-02-13T03:07:06;103432.88;;;8.62;78.52
9009;BME280;62813;51.424;6.762;2023-02-13T03:09:38;103428.56;;;8.60;78.50
9009;BME280;62813;51.424;6.762;2023-02-13T03:12:29;103426.78;;;8.59;78.60
9009;BME280;62813;51.424;6.762;2023-02-13T03:15:17;103430.28;;;8.61;78.62
9009;BME280;62813;51.424;6.762;2023-02-13T03:17:44;103430.31;;;8.62;78.71
9009;BME280;62813;51.424;6.762;2023-02-13T03:20:44;103432.03;;;8.62;78.52
9009;BME280;62813;51.424;6.762;2023-02-13T03:23:49;103426.78;;;8.57;78.54
9009;BME280;62813;51.424;6.762;2023-02-13T03:29:18;103421.59;;;8.53;78.54
9009;BME280;62813;51.424;6.762;2023-02-13T03:32:16;103431.06;;;8.52;78.63
9009;BME280;62813;51.424;6.762;2023-02-13T03:34:53;103432.75;;;8.52;78.79
9009;BME280;62813;51.424;6.762;2023-02-13T03:37:46;103427.59;;;8.52;79.14
9009;BME280;62813;51.424;6.762;2023-02-13T03:40:48;103422.38;;;8.46;79.02
9009;BME280;62813;51.424;6.762;2023-02-13T03:43:51;103425.91;;;8.54;78.47
9009;BME280;62813;51.424;6.762;2023-02-13T03:46:22;103425.06;;;8.56;78.79
9009;BME280;62813;51.424;6.762;2023-02-13T03:48:50;103431.09;;;8.54;78.74
9009;BME280;62813;51.424;6.762;2023-02-13T03:51:41;103431.91;;;8.51;78.71
9009;BME280;62813;51.424;6.762;2023-02-13T03:54:25;103430.22;;;8.53;78.91
9009;BME280;62813;51.424;6.762;2023-02-13T03:57:15;103428.50;;;8.52;78.95
9009;BME280;62813;51.424;6.762;2023-02-13T04:00:04;103429.28;;;8.47;78.99
9009;BME280;62813;51.424;6.762;2023-02-13T04:02:37;103436.97;;;8.39;79.25
9009;BME280;62813;51.424;6.762;2023-02-13T04:05:16;103437.00;;;8.45;78.97
9009;BME280;62813;51.424;6.762;2023-02-13T04:07:44;103436.13;;;8.45;79.23
9009;BME280;62813;51.424;6.762;2023-02-13T04:10:13;103442.16;;;8.44;79.33
9009;BME280;62813;51.424;6.762;2023-02-13T04:12:55;103442.19;;;8.45;79.38
9009;BME280;62813;51.424;6.762;2023-02-13T04:15:38;103430.16;;;8.47;78.90
9009;BME280;62813;51.424;6.762;2023-02-13T04:18:28;103437.00;;;8.42;79.11
9009;BME280;62813;51.424;6.762;2023-02-13T04:20:55;103435.31;;;8.47;79.16
9009;BME280;62813;51.424;6.762;2023-02-13T04:23:22;103429.28;;;8.48;79.25
9009;BME280;62813;51.424;6.762;2023-02-13T04:25:51;103422.31;;;8.41;79.17
9009;BME280;62813;51.424;6.762;2023-02-13T04:28:19;103422.31;;;8.43;79.24
9009;BME280;62813;51.424;6.762;2023-02-13T04:30:46;103424.97;;;8.47;79.24
9009;BME280;62813;51.424;6.762;2023-02-13T04:33:12;103428.38;;;8.45;79.03
9009;BME280;62813;51.424;6.762;2023-02-13T04:35:39;103428.34;;;8.41;79.41
9009;BME280;62813;51.424;6.762;2023-02-13T04:38:05;103424.91;;;8.41;79.63
9009;BME280;62813;51.424;6.762;2023-02-13T04:40:32;103432.63;;;8.38;79.51
9009;BME280;62813;51.424;6.762;2023-02-13T04:42:59;103434.31;;;8.34;79.80
9009;BME280;62813;51.424;6.762;2023-02-13T04:45:26;103434.34;;;8.37;79.52
9009;BME280;62813;51.424;6.762;2023-02-13T04:47:54;103436.94;;;8.37;79.53
9009;BME280;62813;51.424;6.762;2023-02-13T04:50:21;103426.63;;;8.42;79.85
9009;BME280;62813;51.424;6.762;2023-02-13T04:52:52;103436.13;;;8.40;79.88
9009;BME280;62813;51.424;6.762;2023-02-13T04:55:20;103430.97;;;8.45;79.71
9009;BME280;62813;51.424;6.762;2023-02-13T04:57:47;103425.78;;;8.45;79.33
9009;BME280;62813;51.424;6.762;2023-02-13T05:00:14;103422.38;;;8.46;79.57
9009;BME280;62813;51.424;6.762;2023-02-13T05:02:40;103427.50;;;8.43;79.44
9009;BME280;62813;51.424;6.762;2023-02-13T05:05:07;103430.09;;;8.43;79.85
9009;BME280;62813;51.424;6.762;2023-02-13T05:07:36;103418.88;;;8.44;79.53
9009;BME280;62813;51.424;6.762;2023-02-13T05:10:03;103426.63;;;8.42;79.76
9009;BME280;62813;51.424;6.762;2023-02-13T05:12:29;103417.97;;;8.38;79.97
9009;BME280;62813;51.424;6.762;2023-02-13T05:14:56;103418.84;;;8.40;79.77
9009;BME280;62813;51.424;6.762;2023-02-13T05:17:23;103432.59;;;8.36;80.26
9009;BME280;62813;51.424;6.762;2023-02-13T05:19:53;103420.50;;;8.32;80.52
9009;BME280;62813;51.424;6.762;2023-02-13T05:22:19;103421.38;;;8.34;80.42
9009;BME280;62813;51.424;6.762;2023-02-13T05:25:04;103420.56;;;8.38;79.82
9009;BME280;62813;51.424;6.762;2023-02-13T05:27:31;103421.38;;;8.36;79.98
9009;BME280;62813;51.424;6.762;2023-02-13T05:29:58;103417.06;;;8.36;80.35
9009;BME280;62813;51.424;6.762;2023-02-13T05:32:24;103410.25;;;8.41;80.37
9009;BME280;62813;51.424;6.762;2023-02-13T05:34:54;103415.44;;;8.45;80.81
9009;BME280;62813;51.424;6.762;2023-02-13T05:37:21;103417.16;;;8.43;81.05
9009;BME280;62813;51.424;6.762;2023-02-13T05:39:47;103412.81;;;8.41;80.89
9009;BME280;62813;51.424;6.762;2023-02-13T05:42:14;103414.50;;;8.38;80.55
9009;BME280;62813;51.424;6.762;2023-02-13T05:44:41;103411.09;;;8.39;80.52
9009;BME280;62813;51.424;6.762;2023-02-13T05:47:07;103414.50;;;8.38;80.55
9009;BME280;62813;51.424;6.762;2023-02-13T05:52:02;103406.72;;;8.33;80.75
9009;BME280;62813;51.424;6.762;2023-02-13T05:54:29;103406.66;;;8.30;80.44
9009;BME280;62813;51.424;6.762;2023-02-13T05:56:56;103409.22;;;8.27;80.77
9009;BME280;62813;51.424;6.762;2023-02-13T05:59:22;103411.78;;;8.24;80.65
9009;BME280;62813;51.424;6.762;2023-02-13T06:01:49;103412.63;;;8.23;80.71
9009;BME280;62813;51.424;6.762;2023-02-13T06:04:16;103404.81;;;8.19;80.34
9009;BME280;62813;51.424;6.762;2023-02-13T06:06:42;103404.81;;;8.17;80.89
9009;BME280;62813;51.424;6.762;2023-02-13T06:09:10;103403.91;;;8.17;80.86
9009;BME280;62813;51.424;6.762;2023-02-13T06:11:36;103400.44;;;8.13;80.86
9009;BME280;62813;51.424;6.762;2023-02-13T06:14:03;103402.09;;;8.09;81.15
9009;BME280;62813;51.424;6.762;2023-02-13T06:16:32;103404.69;;;8.08;81.32
9009;BME280;62813;51.424;6.762;2023-02-13T06:18:59;103403.03;;;8.13;81.56
9009;BME280;62813;51.424;6.762;2023-02-13T06:21:26;103399.59;;;8.14;81.70
9009;BME280;62813;51.424;6.762;2023-02-13T06:23:52;103401.31;;;8.17;82.03
9009;BME280;62813;51.424;6.762;2023-02-13T06:26:19;103394.47;;;8.20;81.89
9009;BME280;62813;51.424;6.762;2023-02-13T06:28:46;103394.50;;;8.23;81.68
9009;BME280;62813;51.424;6.762;2023-02-13T06:31:12;103397.06;;;8.22;81.60
9009;BME280;62813;51.424;6.762;2023-02-13T06:33:39;103404.84;;;8.22;81.60
9009;BME280;62813;51.424;6.762;2023-02-13T06:36:06;103399.69;;;8.23;81.59
9009;BME280;62813;51.424;6.762;2023-02-13T06:38:33;103404.84;;;8.23;81.27
9009;BME280;62813;51.424;6.762;2023-02-13T06:41:00;103398.84;;;8.24;81.49
9009;BME280;62813;51.424;6.762;2023-02-13T06:43:29;103401.44;;;8.24;81.23
9009;BME280;62813;51.424;6.762;2023-02-13T06:45:56;103401.41;;;8.23;81.10
9009;BME280;62813;51.424;6.762;2023-02-13T06:48:23;103396.22;;;8.21;80.95
9009;BME280;62813;51.424;6.762;2023-02-13T06:50:50;103395.34;;;8.22;80.89
9009;BME280;62813;51.424;6.762;2023-02-13T06:53:19;103403.13;;;8.22;80.64
9009;BME280;62813;51.424;6.762;2023-02-13T06:55:54;103396.22;;;8.23;80.81
9009;BME280;62813;51.424;6.762;2023-02-13T06:58:22;103393.63;;;8.23;80.38
9009;BME280;62813;51.424;6.762;2023-02-13T07:00:50;103399.66;;;8.20;80.50
9009;BME280;62813;51.424;6.762;2023-02-13T07:03:17;103397.94;;;8.19;80.43
9009;BME280;62813;51.424;6.762;2023-02-13T07:05:44;103394.47;;;8.17;80.46
9009;BME280;62813;51.424;6.762;2023-02-13T07:08:11;103395.28;;;8.16;80.42
9009;BME280;62813;51.424;6.762;2023-02-13T07:10:38;103393.56;;;8.17;80.04
9009;BME280;62813;51.424;6.762;2023-02-13T07:13:06;103403.09;;;8.19;79.83
9009;BME280;62813;51.424;6.762;2023-02-13T07:15:33;103408.28;;;8.22;80.25
9009;BME280;62813;51.424;6.762;2023-02-13T07:18:00;103414.34;;;8.23;80.12
9009;BME280;62813;51.424;6.762;2023-02-13T07:20:27;103408.28;;;8.22;79.61
9009;BME280;62813;51.424;6.762;2023-02-13T07:23:01;103419.47;;;8.18;79.44
9009;BME280;62813;51.424;6.762;2023-02-13T07:25:29;103420.28;;;8.16;79.38
9009;BME280;62813;51.424;6.762;2023-02-13T07:28:00;103422.00;;;8.15;79.34
9009;BME280;62813;51.424;6.762;2023-02-13T07:30:28;103421.13;;;8.13;79.30
9009;BME280;62813;51.424;6.762;2023-02-13T07:33:00;103415.94;;;8.11;79.13
9009;BME280;62813;51.424;6.762;2023-02-13T07:35:27;103426.28;;;8.11;79.13
9009;BME280;62813;51.424;6.762;2023-02-13T07:37:53;103423.63;;;8.07;79.28
9009;BME280;62813;51.424;6.762;2023-02-13T07:40:20;103425.38;;;8.08;79.36
9009;BME280;62813;51.424;6.762;2023-02-13T07:42:47;103429.75;;;8.10;79.31
9009;BME280;62813;51.424;6.762;2023-02-13T07:45:14;103428.91;;;8.13;79.02
9009;BME280;62813;51.424;6.762;2023-02-13T07:47:41;103432.38;;;8.17;79.31
9009;BME280;62813;51.424;6.762;2023-02-13T07:50:08;103435.88;;;8.20;78.80
9009;BME280;62813;51.424;6.762;2023-02-13T07:52:35;103435.91;;;8.23;78.97
9009;BME280;62813;51.424;6.762;2023-02-13T07:55:04;103437.69;;;8.27;78.86
9009;BME280;62813;51.424;6.762;2023-02-13T07:57:30;103438.56;;;8.28;78.52
9009;BME280;62813;51.424;6.762;2023-02-13T07:59:57;103442.88;;;8.30;78.74
9009;BME280;62813;51.424;6.762;2023-02-13T08:02:23;103435.97;;;8.31;78.18
9009;BME280;62813;51.424;6.762;2023-02-13T08:04:50;103436.91;;;8.34;78.49
9009;BME280;62813;51.424;6.762;2023-02-13T08:07:17;103436.91;;;8.36;78.51
9009;BME280;62813;51.424;6.762;2023-02-13T08:09:44;103435.25;;;8.43;78.60
9009;BME280;62813;51.424;6.762;2023-02-13T08:12:30;103445.63;;;8.43;78.16
9009;BME280;62813;51.424;6.762;2023-02-13T08:14:58;103445.63;;;8.44;77.89
9009;BME280;62813;51.424;6.762;2023-02-13T08:17:24;103449.13;;;8.46;78.40
9009;BME280;62813;51.424;6.762;2023-02-13T08:19:51;103444.66;;;8.33;78.22
9009;BME280;62813;51.424;6.762;2023-02-13T08:22:17;103440.50;;;8.49;78.02
9009;BME280;62813;51.424;6.762;2023-02-13T08:24:44;103442.31;;;8.57;77.65
9009;BME280;62813;51.424;6.762;2023-02-13T08:27:13;103445.00;;;8.65;77.41
9009;BME280;62813;51.424;6.762;2023-02-13T08:29:40;103442.47;;;8.69;77.31
9009;BME280;62813;51.424;6.762;2023-02-13T08:32:07;103439.94;;;8.79;76.89
9009;BME280;62813;51.424;6.762;2023-02-13T08:34:34;103446.03;;;8.82;76.93
9009;BME280;62813;51.424;6.762;2023-02-13T08:37:01;103450.41;;;8.89;76.68
9009;BME280;62813;51.424;6.762;2023-02-13T08:39:28;103449.44;;;8.78;76.37
9009;BME280;62813;51.424;6.762;2023-02-13T08:41:54;103449.50;;;8.87;76.10
9009;BME280;62813;51.424;6.762;2023-02-13T08:44:21;103446.97;;;8.93;75.81
9009;BME280;62813;51.424;6.762;2023-02-13T08:46:47;103451.38;;;9.01;75.64
9009;BME280;62813;51.424;6.762;2023-02-13T08:49:14;103442.78;;;9.03;75.59
9009;BME280;62813;51.424;6.762;2023-02-13T08:51:41;103448.00;;;9.08;75.59
9009;BME280;62813;51.424;6.762;2023-02-13T08:54:07;103448.97;;;9.16;75.47
9009;BME280;62813;51.424;6.762;2023-02-13T08:56:34;103447.19;;;9.15;74.61
9009;BME280;62813;51.424;6.762;2023-02-13T08:59:01;103448.16;;;9.23;74.62
9009;BME280;62813;51.424;6.762;2023-02-13T09:01:27;103452.50;;;9.29;74.65
9009;BME280;62813;51.424;6.762;2023-02-13T09:03:54;103445.63;;;9.31;74.35
9009;BME280;62813;51.424;6.762;2023-02-13T09:06:20;103450.81;;;9.34;74.08
9009;BME280;62813;51.424;6.762;2023-02-13T09:08:48;103452.44;;;9.18;74.01
9009;BME280;62813;51.424;6.762;2023-02-13T09:11:14;103449.03;;;9.28;73.72
9009;BME280;62813;51.424;6.762;2023-02-13T09:13:44;103449.91;;;9.27;73.77
9009;BME280;62813;51.424;6.762;2023-02-13T09:16:13;103455.94;;;9.23;73.36
9009;BME280;62813;51.424;6.762;2023-02-13T09:18:39;103452.47;;;9.27;73.34
9009;BME280;62813;51.424;6.762;2023-02-13T09:21:09;103454.22;;;9.25;73.32
9009;BME280;62813;51.424;6.762;2023-02-13T09:23:39;103450.81;;;9.32;72.97
9009;BME280;62813;51.424;6.762;2023-02-13T09:26:08;103452.47;;;9.24;73.02
9009;BME280;62813;51.424;6.762;2023-02-13T09:28:36;103449.06;;;9.33;72.91
9009;BME280;62813;51.424;6.762;2023-02-13T09:31:07;103447.41;;;9.39;72.85
9009;BME280;62813;51.424;6.762;2023-02-13T09:33:35;103450.03;;;9.47;72.21
9009;BME280;62813;51.424;6.762;2023-02-13T09:36:10;103452.72;;;9.61;71.91
9009;BME280;62813;51.424;6.762;2023-02-13T09:38:36;103455.28;;;9.58;71.91
9009;BME280;62813;51.424;6.762;2023-02-13T09:41:10;103457.03;;;9.59;71.57
9009;BME280;62813;51.424;6.762;2023-02-13T09:43:57;103454.50;;;9.69;71.63
9009;BME280;62813;51.424;6.762;2023-02-13T09:49:00;103451.03;;;9.69;71.12
9009;BME280;62813;51.424;6.762;2023-02-13T09:51:28;103457.09;;;9.66;71.18
9009;BME280;62813;51.424;6.762;2023-02-13T09:54:03;103452.72;;;9.64;71.04
9009;BME280;62813;51.424;6.762;2023-02-13T10:01:59;103452.94;;;9.96;70.41
9009;BME280;62813;51.424;6.762;2023-02-13T10:04:33;103453.81;;;10.01;70.37
9009;BME280;62813;51.424;6.762;2023-02-13T10:07:22;103451.25;;;10.12;70.02
9009;BME280;62813;51.424;6.762;2023-02-13T10:15:30;103456.50;;;10.24;69.22
9009;BME280;62813;51.424;6.762;2023-02-13T10:18:04;103457.38;;;10.27;69.21
9009;BME280;62813;51.424;6.762;2023-02-13T10:20:37;103448.72;;;10.22;68.96
9009;BME280;62813;51.424;6.762;2023-02-13T10:23:19;103453.84;;;10.09;69.21
9009;BME280;62813;51.424;6.762;2023-02-13T10:25:49;103455.59;;;10.17;69.28
9009;BME280;62813;51.424;6.762;2023-02-13T10:28:27;103453.88;;;10.19;68.99
9009;BME280;62813;51.424;6.762;2023-02-13T10:30:58;103457.38;;;10.23;68.72
9009;BME280;62813;51.424;6.762;2023-02-13T10:33:38;103459.13;;;10.33;68.31
9009;BME280;62813;51.424;6.762;2023-02-13T10:36:15;103443.53;;;10.34;68.53
9009;BME280;62813;51.424;6.762;2023-02-13T10:38:50;103452.22;;;10.41;68.45
9009;BME280;62813;51.424;6.762;2023-02-13T10:41:53;103450.50;;;10.49;68.19
9009;BME280;62813;51.424;6.762;2023-02-13T10:44:32;103449.63;;;10.49;67.72
9009;BME280;62813;51.424;6.762;2023-02-13T10:50:33;103436.69;;;10.53;67.55
9009;BME280;62813;51.424;6.762;2023-02-13T10:53:22;103439.28;;;10.59;67.76
9009;BME280;62813;51.424;6.762;2023-02-13T11:01:54;103429.75;;;10.61;66.68
9009;BME280;62813;51.424;6.762;2023-02-13T11:04:22;103427.16;;;10.61;66.93
9009;BME280;62813;51.424;6.762;2023-02-13T11:06:55;103425.44;;;10.67;66.56
9009;BME280;62813;51.424;6.762;2023-02-13T11:09:23;103416.81;;;10.72;66.80
9009;BME280;62813;51.424;6.762;2023-02-13T11:11:50;103422.88;;;10.73;66.71
9009;BME280;62813;51.424;6.762;2023-02-13T11:14:23;103423.72;;;10.75;66.88
9009;BME280;62813;51.424;6.762;2023-02-13T11:19:19;103403.81;;;10.75;66.50
9009;BME280;62813;51.424;6.762;2023-02-13T11:21:52;103399.47;;;10.76;66.54
9009;BME280;62813;51.424;6.762;2023-02-13T11:24:22;103407.28;;;10.80;66.42
9009;BME280;62813;51.424;6.762;2023-02-13T11:26:52;103408.16;;;10.81;65.93
9009;BME280;62813;51.424;6.762;2023-02-13T11:29:24;103398.63;;;10.86;66.10
9009;BME280;62813;51.424;6.762;2023-02-13T11:32:01;103391.69;;;10.89;65.84
9009;BME280;62813;51.424;6.762;2023-02-13T11:34:30;103394.34;;;10.93;65.66
9009;BME280;62813;51.424;6.762;2023-02-13T11:39:40;103389.06;;;10.91;65.48
9009;BME280;62813;51.424;6.762;2023-02-13T11:42:22;103386.47;;;10.91;65.56
9009;BME280;62813;51.424;6.762;2023-02-13T11:47:37;103383.06;;;10.94;65.51
9009;BME280;62813;51.424;6.762;2023-02-13T11:50:19;103376.13;;;10.97;65.33
9009;BME280;62813;51.424;6.762;2023-02-13T11:52:54;103377.00;;;10.96;65.36
9009;BME280;62813;51.424;6.762;2023-02-13T11:55:35;103370.03;;;10.92;65.06
9009;BME280;62813;51.424;6.762;2023-02-13T12:00:38;103370.06;;;11.03;65.20
9009;BME280;62813;51.424;6.762;2023-02-13T12:08:37;103354.44;;;11.04;64.70
9009;BME280;62813;51.424;6.762;2023-02-13T12:13:55;103353.59;;;11.08;64.79
9009;BME280;62813;51.424;6.762;2023-02-13T12:16:30;103357.03;;;11.10;64.79
9009;BME280;62813;51.424;6.762;2023-02-13T12:19:03;103356.19;;;11.11;64.26
9009;BME280;62813;51.424;6.762;2023-02-13T12:28:02;103337.09;;;11.25;64.51
9009;BME280;62813;51.424;6.762;2023-02-13T12:30:40;103331.88;;;11.25;63.83
9009;BME280;62813;51.424;6.762;2023-02-13T12:36:15;103316.31;;;11.28;64.07
9009;BME280;62813;51.424;6.762;2023-02-13T12:39:04;103325.78;;;11.33;63.53
9009;BME280;62813;51.424;6.762;2023-02-13T12:42:08;103326.63;;;11.40;63.76
9009;BME280;62813;51.424;6.762;2023-02-13T12:48:46;103310.16;;;11.49;63.48
9009;BME280;62813;51.424;6.762;2023-02-13T12:58:47;103302.31;;;11.56;63.39
9009;BME280;62813;51.424;6.762;2023-02-13T13:01:35;103300.56;;;11.55;63.35
9009;BME280;62813;51.424;6.762;2023-02-13T13:04:16;103299.72;;;11.56;63.14
9009;BME280;62813;51.424;6.762;2023-02-13T13:06:56;103286.69;;;11.59;62.76
9009;BME280;62813;51.424;6.762;2023-02-13T13:12:31;103291.88;;;11.65;62.98
9009;BME280;62813;51.424;6.762;2023-02-13T13:20:20;103282.31;;;11.67;62.31
9009;BME280;62813;51.424;6.762;2023-02-13T13:22:53;103286.63;;;11.72;62.69
9009;BME280;62813;51.424;6.762;2023-02-13T13:28:02;103277.06;;;11.78;61.75
9009;BME280;62813;51.424;6.762;2023-02-13T13:30:34;103273.59;;;11.78;61.90
9009;BME280;62813;51.424;6.762;2023-02-13T13:33:15;103261.44;;;11.80;61.33
9009;BME280;62813;51.424;6.762;2023-02-13T13:49:57;103256.16;;;11.89;60.80
9009;BME280;62813;51.424;6.762;2023-02-13T13:52:35;103255.28;;;11.90;60.25
9009;BME280;62813;51.424;6.762;2023-02-13T13:55:05;103256.13;;;11.90;60.76
9009;BME280;62813;51.424;6.762;2023-02-13T13:57:58;103250.09;;;11.88;60.41
9009;BME280;62813;51.424;6.762;2023-02-13T14:00:27;103251.84;;;11.91;60.23
9009;BME280;62813;51.424;6.762;2023-02-13T14:05:32;103250.94;;;11.92;60.05
9009;BME280;62813;51.424;6.762;2023-02-13T14:08:51;103247.44;;;11.94;60.00
9009;BME280;62813;51.424;6.762;2023-02-13T14:11:01;103245.72;;;11.98;59.65
9009;BME280;62813;51.424;6.762;2023-02-13T14:13:34;103239.66;;;11.93;59.12
9009;BME280;62813;51.424;6.762;2023-02-13T14:16:02;103239.69;;;11.91;59.04
9009;BME280;62813;51.424;6.762;2023-02-13T14:18:30;103236.22;;;11.91;59.32
9009;BME280;62813;51.424;6.762;2023-02-13T14:20:59;103230.13;;;11.90;59.33
9009;BME280;62813;51.424;6.762;2023-02-13T14:23:31;103226.63;;;11.94;59.37
9009;BME280;62813;51.424;6.762;2023-02-13T14:33:58;103223.09;;;12.02;58.59
9009;BME280;62813;51.424;6.762;2023-02-13T14:36:34;103224.00;;;11.99;58.83
9009;BME280;62813;51.424;6.762;2023-02-13T14:46:59;103213.56;;;12.01;59.20
9009;BME280;62813;51.424;6.762;2023-02-13T14:49:33;103217.00;;;12.04;59.26
9009;BME280;62813;51.424;6.762;2023-02-13T14:52:06;103208.34;;;12.05;59.17
9009;BME280;62813;51.424;6.762;2023-02-13T14:54:37;103215.28;;;12.03;59.05
9009;BME280;62813;51.424;6.762;2023-02-13T14:57:48;103210.94;;;12.04;58.63
9009;BME280;62813;51.424;6.762;2023-02-13T15:00:32;103212.69;;;12.03;58.67
9009;BME280;62813;51.424;6.762;2023-02-13T15:03:10;103202.25;;;12.06;59.06
9009;BME280;62813;51.424;6.762;2023-02-13T15:05:39;103208.34;;;12.02;59.14
9009;BME280;62813;51.424;6.762;2023-02-13T15:08:14;103201.41;;;12.01;59.37
9009;BME280;62813;51.424;6.762;2023-02-13T15:10:45;103202.31;;;12.00;59.21
9009;BME280;62813;51.424;6.762;2023-02-13T15:13:24;103204.03;;;12.00;58.96
9009;BME280;62813;51.424;6.762;2023-02-13T15:15:58;103204.88;;;12.03;58.89
9009;BME280;62813;51.424;6.762;2023-02-13T15:18:28;103200.53;;;12.02;59.16
9009;BME280;62813;51.424;6.762;2023-02-13T15:20:57;103197.94;;;12.02;58.86
9009;BME280;62813;51.424;6.762;2023-02-13T15:23:30;103190.16;;;12.01;59.43
9009;BME280;62813;51.424;6.762;2023-02-13T15:26:03;103195.34;;;12.01;59.29
9009;BME280;62813;51.424;6.762;2023-02-13T15:28:31;103195.34;;;12.02;59.04
9009;BME280;62813;51.424;6.762;2023-02-13T15:31:16;103196.22;;;12.01;59.29
9009;BME280;62813;51.424;6.762;2023-02-13T15:33:47;103196.19;;;12.04;58.97
9009;BME280;62813;51.424;6.762;2023-02-13T15:36:17;103192.72;;;12.02;59.05
9009;BME280;62813;51.424;6.762;2023-02-13T15:38:44;103201.44;;;12.00;58.77
9009;BME280;62813;51.424;6.762;2023-02-13T15:41:16;103196.25;;;11.98;59.22
9009;BME280;62813;51.424;6.762;2023-02-13T15:43:46;103196.25;;;11.95;59.29
9009;BME280;62813;51.424;6.762;2023-02-13T15:46:28;103204.94;;;11.94;59.21
9009;BME280;62813;51.424;6.762;2023-02-13T15:49:15;103197.13;;;11.94;59.14
9009;BME280;62813;51.424;6.762;2023-02-13T15:51:42;103199.78;;;11.91;59.19
9009;BME280;62813;51.424;6.762;2023-02-13T15:54:27;103200.63;;;11.90;59.54
9009;BME280;62813;51.424;6.762;2023-02-13T15:56:56;103195.44;;;11.90;59.17